createdAt,value
2022-12-25T00:01:13.809Z,42.90
2022-12-25T00:04:03.467Z,41.50
2022-12-25T00:06:46.280Z,39.80
2022-12-25T00:12:12.047Z,45.00
2022-12-25T00:14:54.850Z,48.40
2022-12-25T00:20:20.742Z,49.10
2022-12-25T00:23:03.571Z,52.80
2022-12-25T00:25:46.384Z,52.10
2022-12-25T00:31:14.894Z,48.70
2022-12-25T00:33:58.140Z,48.60
2022-12-25T00:36:43.908Z,43.30
2022-12-25T00:39:26.824Z,40.30
2022-12-25T00:42:20.291Z,37.50
2022-12-25T00:45:03.381Z,40.20
2022-12-25T00:47:46.205Z,36.50
2022-12-25T00:53:11.761Z,36.30
2022-12-25T00:58:41.612Z,35.20
2022-12-25T01:01:24.741Z,35.30
2022-12-25T01:04:08.906Z,34.60
2022-12-25T01:06:51.716Z,32.00
2022-12-25T01:09:53.287Z,33.40
2022-12-25T01:12:39.639Z,30.00
2022-12-25T01:15:22.478Z,27.90
2022-12-25T01:18:07.945Z,29.90
2022-12-25T01:20:51.673Z,30.90
2022-12-25T01:23:35.552Z,27.90
2022-12-25T01:26:20.226Z,28.50
2022-12-25T01:29:03.056Z,26.20
2022-12-25T01:31:46.022Z,25.60
2022-12-25T01:34:28.945Z,25.70
2022-12-25T01:37:11.810Z,24.60
2022-12-25T01:39:54.847Z,23.30
2022-12-25T01:42:38.069Z,25.50
2022-12-25T01:45:27.101Z,23.20
2022-12-25T01:48:19.441Z,24.50
2022-12-25T01:51:06.943Z,23.00
2022-12-25T01:53:53.471Z,23.60
2022-12-25T01:56:37.883Z,24.70
2022-12-25T01:59:25.030Z,23.20
2022-12-25T02:02:08.590Z,25.80
2022-12-25T02:05:01.357Z,24.80
2022-12-25T02:07:46.539Z,24.80
2022-12-25T02:10:29.753Z,25.40
2022-12-25T02:13:15.751Z,23.10
2022-12-25T02:16:09.684Z,25.20
2022-12-25T02:18:58.649Z,23.90
2022-12-25T02:21:52.278Z,22.80
2022-12-25T02:24:57.537Z,23.00
2022-12-25T02:28:04.914Z,24.70
2022-12-25T02:30:55.215Z,22.90
2022-12-25T02:34:05.540Z,23.70
2022-12-25T02:37:01.629Z,21.20
2022-12-25T02:39:57.990Z,21.70
2022-12-25T02:43:16.936Z,19.50
2022-12-25T02:46:40.528Z,19.30
2022-12-25T02:52:48.758Z,19.00
2022-12-25T02:55:57.870Z,18.40
2022-12-25T02:59:01.712Z,17.00
2022-12-25T03:02:05.039Z,18.50
2022-12-25T03:05:10.160Z,17.80
2022-12-25T03:07:57.596Z,17.90
2022-12-25T03:11:03.718Z,19.40
2022-12-25T03:13:51.562Z,18.00
2022-12-25T03:16:54.147Z,17.60
2022-12-25T03:23:01.579Z,16.40
2022-12-25T03:26:03.358Z,16.70
2022-12-25T03:28:46.150Z,16.30
2022-12-25T03:31:52.913Z,17.70
2022-12-25T03:35:02.965Z,16.40
2022-12-25T03:38:14.675Z,15.70
2022-12-25T03:41:26.509Z,15.90
2022-12-25T03:44:40.009Z,15.20
2022-12-25T03:47:35.293Z,15.40
2022-12-25T03:50:42.315Z,15.60
2022-12-25T03:53:58.743Z,13.80
2022-12-25T03:57:01.753Z,15.00
2022-12-25T04:03:11.603Z,14.50
2022-12-25T04:06:13.498Z,16.40
2022-12-25T04:09:14.791Z,14.50
2022-12-25T04:12:16.757Z,15.30
2022-12-25T04:15:18.360Z,15.90
2022-12-25T04:18:24.480Z,14.00
2022-12-25T04:21:25.906Z,14.00
2022-12-25T04:24:28.779Z,17.10
2022-12-25T04:27:30.310Z,18.30
2022-12-25T04:30:31.964Z,16.90
2022-12-25T04:33:33.665Z,15.90
2022-12-25T04:36:16.487Z,16.00
2022-12-25T04:38:59.428Z,16.60
2022-12-25T04:41:42.328Z,17.10
2022-12-25T04:44:25.267Z,19.20
2022-12-25T04:47:11.519Z,16.60
2022-12-25T04:49:54.981Z,16.70
2022-12-25T04:52:40.079Z,17.60
2022-12-25T04:55:22.977Z,17.40
2022-12-25T04:58:06.868Z,16.90
2022-12-25T05:00:49.808Z,18.00
2022-12-25T05:03:33.435Z,17.80
2022-12-25T05:06:16.664Z,17.80
2022-12-25T05:09:00.587Z,20.00
2022-12-25T05:11:43.517Z,19.50
2022-12-25T05:14:26.486Z,18.60
2022-12-25T05:17:09.565Z,20.40
2022-12-25T05:19:52.396Z,20.30
2022-12-25T05:22:35.275Z,19.90
2022-12-25T05:25:18.222Z,18.70
2022-12-25T05:28:01.104Z,19.70
2022-12-25T05:30:44.359Z,19.10
2022-12-25T05:33:27.309Z,17.50
2022-12-25T05:36:12.232Z,17.70
2022-12-25T05:38:55.293Z,18.60
2022-12-25T05:41:38.239Z,21.50
2022-12-25T05:44:21.494Z,18.70
2022-12-25T05:47:04.541Z,21.80
2022-12-25T05:49:49.643Z,19.30
2022-12-25T05:52:34.422Z,19.50
2022-12-25T05:55:17.329Z,19.20
2022-12-25T05:58:00.228Z,19.60
2022-12-25T06:00:45.601Z,20.00
2022-12-25T06:03:29.971Z,20.40
2022-12-25T06:06:13.943Z,20.00
2022-12-25T06:08:56.859Z,19.80
2022-12-25T06:11:40.587Z,20.80
2022-12-25T06:14:24.573Z,20.20
2022-12-25T06:17:07.494Z,23.10
2022-12-25T06:19:50.506Z,20.60
2022-12-25T06:22:34.161Z,19.60
2022-12-25T06:25:17.307Z,19.90
2022-12-25T06:28:00.220Z,20.10
2022-12-25T06:30:43.260Z,19.60
2022-12-25T06:33:26.208Z,19.70
2022-12-25T06:36:21.253Z,18.30
2022-12-25T06:39:04.770Z,18.10
2022-12-25T06:41:48.135Z,18.30
2022-12-25T06:44:31.148Z,17.20
2022-12-25T06:47:14.081Z,16.10
2022-12-25T06:49:56.913Z,17.50
2022-12-25T06:52:39.729Z,18.00
2022-12-25T06:55:22.649Z,16.80
2022-12-25T06:58:05.460Z,16.50
2022-12-25T07:00:48.445Z,16.60
2022-12-25T07:03:31.570Z,16.50
2022-12-25T07:06:15.306Z,15.40
2022-12-25T07:08:58.633Z,14.10
2022-12-25T07:11:41.567Z,16.50
2022-12-25T07:14:24.791Z,15.60
2022-12-25T07:17:07.799Z,13.10
2022-12-25T07:19:51.492Z,15.20
2022-12-25T07:22:34.531Z,13.50
2022-12-25T07:25:18.403Z,14.10
2022-12-25T07:28:01.292Z,14.10
2022-12-25T07:30:44.342Z,12.70
2022-12-25T07:33:27.420Z,12.60
2022-12-25T07:36:12.870Z,13.80
2022-12-25T07:38:56.831Z,14.10
2022-12-25T07:41:40.490Z,13.90
2022-12-25T07:44:30.040Z,13.50
2022-12-25T07:47:15.091Z,13.30
2022-12-25T07:49:58.024Z,13.30
2022-12-25T07:52:43.615Z,12.90
2022-12-25T07:55:26.907Z,14.00
2022-12-25T07:58:09.750Z,14.60
2022-12-25T08:00:52.907Z,13.20
2022-12-25T08:03:36.778Z,12.90
2022-12-25T08:06:21.270Z,12.30
2022-12-25T08:09:13.556Z,13.30
2022-12-25T08:11:56.470Z,12.70
2022-12-25T08:14:39.461Z,13.80
2022-12-25T08:17:22.305Z,13.00
2022-12-25T08:20:08.741Z,13.20
2022-12-25T08:22:51.587Z,12.40
2022-12-25T08:25:37.293Z,13.50
2022-12-25T08:28:20.106Z,14.20
2022-12-25T08:31:08.085Z,13.40
2022-12-25T08:33:54.502Z,13.20
2022-12-25T08:36:38.258Z,14.30
2022-12-25T08:39:21.136Z,13.70
2022-12-25T08:42:04.193Z,13.60
2022-12-25T08:44:47.069Z,14.00
2022-12-25T08:47:30.429Z,14.30
2022-12-25T08:50:13.351Z,13.70
2022-12-25T08:52:56.369Z,13.90
2022-12-25T08:55:39.480Z,14.20
2022-12-25T08:58:22.292Z,13.30
2022-12-25T09:01:05.974Z,14.40
2022-12-25T09:03:49.167Z,13.80
2022-12-25T09:06:32.499Z,13.50
2022-12-25T09:09:17.767Z,14.60
2022-12-25T09:12:00.734Z,13.60
2022-12-25T09:14:44.694Z,14.60
2022-12-25T09:17:27.971Z,15.60
2022-12-25T09:20:11.036Z,14.90
2022-12-25T09:22:53.952Z,15.10
2022-12-25T09:25:36.864Z,16.00
2022-12-25T09:28:20.150Z,16.00
2022-12-25T09:31:03.747Z,15.70
2022-12-25T09:33:46.743Z,14.80
2022-12-25T09:36:29.672Z,15.40
2022-12-25T09:39:14.825Z,16.10
2022-12-25T09:42:09.831Z,16.60
2022-12-25T09:44:59.287Z,16.00
2022-12-25T09:47:46.938Z,14.90
2022-12-25T09:50:46.374Z,13.60
2022-12-25T09:53:39.657Z,15.30
2022-12-25T09:56:25.976Z,14.80
2022-12-25T09:59:27.406Z,15.90
2022-12-25T10:02:40.119Z,16.60
2022-12-25T10:05:38.252Z,14.40
2022-12-25T10:08:47.887Z,16.10
2022-12-25T10:11:48.668Z,15.40
2022-12-25T10:14:38.719Z,17.10
2022-12-25T10:17:30.404Z,16.80
2022-12-25T10:20:34.709Z,16.70
2022-12-25T10:23:41.026Z,16.10
2022-12-25T10:26:26.648Z,17.00
2022-12-25T10:29:16.073Z,16.00
2022-12-25T10:31:59.479Z,17.10
2022-12-25T10:34:43.687Z,16.00
2022-12-25T10:37:26.674Z,17.70
2022-12-25T10:40:29.006Z,17.20
2022-12-25T10:43:17.964Z,17.40
2022-12-25T10:46:00.912Z,17.10
2022-12-25T10:48:58.110Z,15.00
2022-12-25T10:51:41.028Z,15.30
2022-12-25T10:54:30.790Z,14.10
2022-12-25T10:57:19.364Z,14.10
2022-12-25T11:00:08.463Z,14.40
2022-12-25T11:02:51.868Z,13.60
2022-12-25T11:05:37.225Z,12.70
2022-12-25T11:08:27.682Z,12.90
2022-12-25T11:11:19.773Z,13.90
2022-12-25T11:14:03.269Z,14.60
2022-12-25T11:16:47.248Z,12.80
2022-12-25T11:19:32.695Z,14.00
2022-12-25T11:22:19.036Z,11.50
2022-12-25T11:25:13.923Z,12.60
2022-12-25T11:28:02.681Z,11.90
2022-12-25T11:30:55.250Z,10.80
2022-12-25T11:33:45.283Z,11.40
2022-12-25T11:36:46.982Z,13.80
2022-12-25T11:39:35.988Z,11.80
2022-12-25T11:42:37.825Z,13.90
2022-12-25T11:45:38.304Z,14.00
2022-12-25T11:48:36.816Z,13.40
2022-12-25T11:51:20.640Z,13.20
2022-12-25T11:54:25.357Z,12.50
2022-12-25T11:57:11.752Z,14.20
2022-12-25T12:00:06.826Z,13.30
2022-12-25T12:03:11.778Z,13.10
2022-12-25T12:06:03.372Z,13.40
2022-12-25T12:08:52.553Z,13.70
2022-12-25T12:11:50.805Z,14.20
2022-12-25T12:14:58.876Z,13.80
2022-12-25T12:17:41.801Z,14.40
2022-12-25T12:20:34.683Z,14.30
2022-12-25T12:26:00.965Z,14.40
2022-12-25T12:28:46.012Z,15.70
2022-12-25T12:31:48.789Z,14.80
2022-12-25T12:34:42.535Z,14.60
2022-12-25T12:37:32.619Z,15.30
2022-12-25T12:40:37.980Z,16.20
2022-12-25T12:43:41.891Z,17.30
2022-12-25T12:46:30.592Z,18.60
2022-12-25T12:49:26.743Z,21.40
2022-12-25T12:52:33.510Z,21.00
2022-12-25T12:55:16.953Z,22.10
2022-12-25T12:58:05.668Z,20.30
2022-12-25T13:00:55.562Z,19.70
2022-12-25T13:03:42.657Z,23.30
2022-12-25T13:06:41.066Z,23.30
2022-12-25T13:09:24.035Z,23.40
2022-12-25T13:12:10.847Z,22.80
2022-12-25T13:14:54.062Z,18.80
2022-12-25T13:17:37.685Z,19.10
2022-12-25T13:20:30.380Z,21.50
2022-12-25T13:23:35.013Z,20.50
2022-12-25T13:26:18.641Z,19.50
2022-12-25T13:29:03.926Z,19.50
2022-12-25T13:31:51.090Z,23.50
2022-12-25T13:34:43.501Z,22.20
2022-12-25T13:37:30.324Z,26.40
2022-12-25T13:40:22.114Z,24.70
2022-12-25T13:43:11.700Z,24.00
2022-12-25T13:45:55.191Z,24.40
2022-12-25T13:48:38.217Z,23.50
2022-12-25T13:51:21.137Z,22.60
2022-12-25T13:54:10.525Z,26.30
2022-12-25T13:56:55.515Z,26.00
2022-12-25T13:59:38.996Z,27.30
2022-12-25T14:02:28.631Z,24.90
2022-12-25T14:05:41.748Z,27.60
2022-12-25T14:08:29.106Z,29.90
2022-12-25T14:11:15.642Z,29.50
2022-12-25T14:14:02.472Z,29.00
2022-12-25T14:16:49.452Z,25.40
2022-12-25T14:19:34.960Z,24.70
2022-12-25T14:22:21.854Z,22.20
2022-12-25T14:25:15.221Z,24.50
2022-12-25T14:27:58.430Z,26.10
2022-12-25T14:30:42.676Z,24.50
2022-12-25T14:33:26.814Z,26.60
2022-12-25T14:36:13.326Z,26.50
2022-12-25T14:39:02.127Z,27.80
2022-12-25T14:41:53.225Z,29.70
2022-12-25T14:44:41.531Z,28.80
2022-12-25T14:47:24.853Z,29.80
2022-12-25T14:50:24.639Z,28.70
2022-12-25T14:53:19.423Z,26.20
2022-12-25T14:56:04.174Z,26.90
2022-12-25T14:58:50.804Z,29.00
2022-12-25T15:01:41.818Z,24.20
2022-12-25T15:04:26.734Z,26.30
2022-12-25T15:07:30.081Z,24.20
2022-12-25T15:10:57.702Z,22.60
2022-12-25T15:13:19.683Z,23.80
2022-12-25T15:16:13.216Z,24.80
2022-12-25T15:18:57.443Z,23.00
2022-12-25T15:21:40.508Z,27.00
2022-12-25T15:24:23.688Z,30.30
2022-12-25T15:27:18.229Z,35.00
2022-12-25T15:30:10.090Z,36.40
2022-12-25T15:32:54.783Z,35.20
2022-12-25T15:35:39.151Z,36.00
2022-12-25T15:38:23.073Z,37.30
2022-12-25T15:41:33.815Z,35.40
2022-12-25T15:44:17.355Z,38.10
2022-12-25T15:47:00.194Z,39.30
2022-12-25T15:49:43.593Z,39.80
2022-12-25T15:52:26.608Z,43.00
2022-12-25T15:55:10.197Z,40.20
2022-12-25T15:57:54.794Z,40.60
2022-12-25T16:00:37.605Z,38.60
2022-12-25T16:03:20.513Z,38.60
2022-12-25T16:06:03.533Z,39.60
2022-12-25T16:08:47.486Z,42.10
2022-12-25T16:11:30.719Z,41.10
2022-12-25T16:14:14.144Z,40.80
2022-12-25T16:16:57.024Z,40.20
2022-12-25T16:19:39.942Z,37.10
2022-12-25T16:22:27.557Z,37.60
2022-12-25T16:25:15.191Z,35.90
2022-12-25T16:27:58.135Z,33.60
2022-12-25T16:30:41.943Z,37.70
2022-12-25T16:33:26.293Z,34.30
2022-12-25T16:36:09.604Z,35.30
2022-12-25T16:38:53.437Z,33.20
2022-12-25T16:41:36.741Z,34.40
2022-12-25T16:44:20.310Z,32.40
2022-12-25T16:47:03.676Z,32.30
2022-12-25T16:49:50.141Z,32.20
2022-12-25T16:52:34.965Z,37.70
2022-12-25T16:55:26.300Z,36.30
2022-12-25T16:58:12.929Z,35.10
2022-12-25T17:01:03.607Z,36.60
2022-12-25T17:03:47.447Z,37.80
2022-12-25T17:06:30.351Z,40.70
2022-12-25T17:09:13.569Z,34.00
2022-12-25T17:11:56.468Z,37.60
2022-12-25T17:14:39.779Z,37.20
2022-12-25T17:17:22.783Z,36.80
2022-12-25T17:20:06.753Z,38.00
2022-12-25T17:22:50.161Z,39.10
2022-12-25T17:25:33.700Z,37.60
2022-12-25T17:28:16.520Z,37.40
2022-12-25T17:31:04.680Z,36.10
2022-12-25T17:33:47.860Z,34.50
2022-12-25T17:36:31.910Z,39.60
2022-12-25T17:39:14.837Z,37.50
2022-12-25T17:41:57.837Z,37.70
2022-12-25T17:44:40.876Z,38.10
2022-12-25T17:47:23.675Z,39.40
2022-12-25T17:50:07.391Z,38.20
2022-12-25T17:52:50.226Z,38.70
2022-12-25T17:55:36.595Z,37.60
2022-12-25T17:58:19.416Z,38.70
2022-12-25T18:01:15.479Z,37.30
2022-12-25T18:04:02.061Z,36.00
2022-12-25T18:06:45.661Z,36.40
2022-12-25T18:09:29.165Z,39.90
2022-12-25T18:12:13.186Z,37.50
2022-12-25T18:14:56.031Z,36.60
2022-12-25T18:17:39.265Z,35.50
2022-12-25T18:20:22.084Z,37.10
2022-12-25T18:23:04.996Z,37.80
2022-12-25T18:25:48.309Z,36.80
2022-12-25T18:28:31.981Z,39.70
2022-12-25T18:31:17.935Z,38.30
2022-12-25T18:34:01.347Z,41.10
2022-12-25T18:36:45.386Z,38.70
2022-12-25T18:39:32.750Z,37.60
2022-12-25T18:42:34.366Z,38.20
2022-12-25T18:45:20.830Z,35.70
2022-12-25T18:48:06.283Z,37.30
2022-12-25T18:50:56.519Z,38.40
2022-12-25T18:53:39.611Z,35.40
2022-12-25T18:56:23.701Z,35.10
2022-12-25T18:59:06.567Z,36.90
2022-12-25T19:01:49.841Z,34.60
2022-12-25T19:04:32.861Z,33.80
2022-12-25T19:07:16.334Z,35.90
2022-12-25T19:09:59.372Z,34.90
2022-12-25T19:12:42.471Z,37.50
2022-12-25T19:15:25.322Z,34.80
2022-12-25T19:18:08.942Z,36.10
2022-12-25T19:20:51.835Z,36.00
2022-12-25T19:23:35.686Z,38.70
2022-12-25T19:26:18.990Z,36.70
2022-12-25T19:29:02.805Z,37.30
2022-12-25T19:31:47.676Z,36.50
2022-12-25T19:34:30.643Z,34.40
2022-12-25T19:37:15.184Z,36.60
2022-12-25T19:39:58.397Z,37.90
2022-12-25T19:42:41.559Z,36.90
2022-12-25T19:45:25.383Z,37.70
2022-12-25T19:48:08.343Z,36.40
2022-12-25T19:50:52.321Z,36.90
2022-12-25T19:53:35.248Z,38.40
2022-12-25T19:56:18.746Z,37.10
2022-12-25T19:59:01.945Z,37.30
2022-12-25T20:01:44.981Z,34.20
2022-12-25T20:04:28.016Z,36.00
2022-12-25T20:07:11.322Z,36.20
2022-12-25T20:09:54.145Z,38.40
2022-12-25T20:12:37.271Z,36.70
2022-12-25T20:15:20.588Z,35.60
2022-12-25T20:18:04.036Z,34.90
2022-12-25T20:20:46.903Z,33.50
2022-12-25T20:23:30.232Z,33.20
2022-12-25T20:26:15.223Z,32.50
2022-12-25T20:28:59.407Z,30.50
2022-12-25T20:31:42.310Z,33.70
2022-12-25T20:34:25.390Z,29.90
2022-12-25T20:37:08.305Z,30.00
2022-12-25T20:39:54.596Z,29.50
2022-12-25T20:42:37.613Z,30.90
2022-12-25T20:45:20.479Z,31.20
2022-12-25T20:48:05.261Z,28.80
2022-12-25T20:50:48.314Z,27.20
2022-12-25T20:53:31.291Z,28.00
2022-12-25T20:56:16.336Z,27.30
2022-12-25T20:59:00.413Z,29.30
2022-12-25T21:01:43.467Z,31.30
2022-12-25T21:04:26.575Z,30.20
2022-12-25T21:07:09.551Z,29.40
2022-12-25T21:09:52.479Z,31.80
2022-12-25T21:12:35.464Z,29.70
2022-12-25T21:15:18.522Z,32.80
2022-12-25T21:18:03.035Z,30.00
2022-12-25T21:20:55.004Z,30.80
2022-12-25T21:23:39.531Z,33.10
2022-12-25T21:26:28.684Z,32.30
2022-12-25T21:29:11.533Z,34.30
2022-12-25T21:32:16.636Z,33.30
2022-12-25T21:34:59.459Z,35.00
2022-12-25T21:37:42.354Z,30.80
2022-12-25T21:40:25.266Z,32.60
2022-12-25T21:43:08.173Z,32.20
2022-12-25T21:45:51.119Z,31.40
2022-12-25T21:48:36.432Z,34.20
2022-12-25T21:51:39.741Z,34.50
2022-12-25T21:54:23.705Z,32.00
2022-12-25T21:57:09.163Z,33.30
2022-12-25T21:59:51.974Z,33.10
2022-12-25T22:08:20.675Z,35.30
2022-12-25T22:11:04.495Z,35.00
2022-12-25T22:14:06.063Z,34.70
2022-12-25T22:17:07.617Z,33.40
2022-12-25T22:19:52.765Z,34.90
2022-12-25T22:22:36.119Z,33.70
2022-12-25T22:25:20.305Z,33.40
2022-12-25T22:28:03.399Z,32.60
2022-12-25T22:30:46.255Z,31.40
2022-12-25T22:33:30.506Z,30.90
2022-12-25T22:36:13.520Z,30.00
2022-12-25T22:38:56.420Z,29.70
2022-12-25T22:41:39.330Z,32.80
2022-12-25T22:44:26.282Z,32.70
2022-12-25T22:47:09.718Z,29.60
2022-12-25T22:49:52.576Z,30.50
2022-12-25T22:52:36.496Z,30.30
2022-12-25T22:55:20.224Z,31.60
2022-12-25T22:58:03.372Z,30.80
2022-12-25T23:00:47.317Z,30.40
2022-12-25T23:03:30.274Z,27.80
2022-12-25T23:06:13.446Z,26.90
2022-12-25T23:08:56.874Z,26.40
2022-12-25T23:11:39.918Z,28.60
2022-12-25T23:14:39.208Z,28.50
2022-12-25T23:17:41.031Z,27.20
2022-12-25T23:20:42.797Z,25.00
2022-12-25T23:23:44.461Z,27.60
2022-12-25T23:26:27.320Z,26.30
2022-12-25T23:29:50.579Z,26.30
2022-12-25T23:32:33.899Z,26.50
2022-12-25T23:35:16.719Z,27.80
2022-12-25T23:37:59.707Z,27.30
2022-12-25T23:40:42.524Z,26.90
2022-12-25T23:43:25.866Z,24.40
2022-12-25T23:46:08.800Z,27.80
2022-12-25T23:48:51.750Z,28.00
2022-12-25T23:51:40.008Z,26.50
2022-12-25T23:54:26.566Z,26.20
2022-12-25T23:57:09.443Z,26.90
2022-12-25T23:59:52.360Z,27.40
